sensor_id;sensor_type;location;lat;lon;timestamp;P1;durP1;ratioP1;P2;durP2;ratioP2
68224;SDS011;57497;43.322;21.932;2022-10-18T00:00:33;18;;;10.8;;
68224;SDS011;57497;43.322;21.932;2022-10-18T00:05:33;19.6;;;10.2;;
68224;SDS011;57497;43.322;21.932;2022-10-18T00:10:33;23.4;;;9.7;;
68224;SDS011;57497;43.322;21.932;2022-10-18T00:15:33;26.6;;;11.9;;
68224;SDS011;57497;43.322;21.932;2022-10-18T00:20:33;21.4;;;9.7;;
68224;SDS011;57497;43.322;21.932;2022-10-18T00:25:33;23.1;;;10.6;;
68224;SDS011;57497;43.322;21.932;2022-10-18T00:30:33;18.3;;;11.7;;
68224;SDS011;57497;43.322;21.932;2022-10-18T00:35:33;24.2;;;8.6;;
68224;SDS011;57497;43.322;21.932;2022-10-18T00:40:33;11.2;;;7.5;;
68224;SDS011;57497;43.322;21.932;2022-10-18T00:45:33;15.5;;;8.4;;
68224;SDS011;57497;43.322;21.932;2022-10-18T00:50:33;19;;;8.5;;
68224;SDS011;57497;43.322;21.932;2022-10-18T00:55:32;14.5;;;8.3;;
68224;SDS011;57497;43.322;21.932;2022-10-18T01:00:34;19.6;;;8;;
68224;SDS011;57497;43.322;21.932;2022-10-18T01:05:34;16.7;;;9;;
68224;SDS011;57497;43.322;21.932;2022-10-18T01:10:35;17.4;;;10.6;;
68224;SDS011;57497;43.322;21.932;2022-10-18T01:15:33;20.8;;;10.2;;
68224;SDS011;57497;43.322;21.932;2022-10-18T01:20:44;26.7;;;11;;
68224;SDS011;57497;43.322;21.932;2022-10-18T01:25:36;15.8;;;9.1;;
68224;SDS011;57497;43.322;21.932;2022-10-18T01:30:35;15.3;;;9.4;;
68224;SDS011;57497;43.322;21.932;2022-10-18T01:35:33;16.6;;;11.2;;
68224;SDS011;57497;43.322;21.932;2022-10-18T01:40:33;13.6;;;9.3;;
68224;SDS011;57497;43.322;21.932;2022-10-18T01:45:33;13.5;;;8;;
68224;SDS011;57497;43.322;21.932;2022-10-18T01:50:33;18.1;;;8.9;;
68224;SDS011;57497;43.322;21.932;2022-10-18T01:55:36;15.5;;;8.8;;
68224;SDS011;57497;43.322;21.932;2022-10-18T02:00:35;13.6;;;7.9;;
68224;SDS011;57497;43.322;21.932;2022-10-18T02:05:35;13.2;;;8.8;;
68224;SDS011;57497;43.322;21.932;2022-10-18T02:10:34;16.5;;;9.8;;
68224;SDS011;57497;43.322;21.932;2022-10-18T02:15:33;15.2;;;9;;
68224;SDS011;57497;43.322;21.932;2022-10-18T02:20:33;17.7;;;8.7;;
68224;SDS011;57497;43.322;21.932;2022-10-18T02:25:33;14.6;;;8.3;;
68224;SDS011;57497;43.322;21.932;2022-10-18T02:30:36;12.9;;;9.3;;
68224;SDS011;57497;43.322;21.932;2022-10-18T02:35:34;32.4;;;19;;
68224;SDS011;57497;43.322;21.932;2022-10-18T02:40:33;47.5;;;22.8;;
68224;SDS011;57497;43.322;21.932;2022-10-18T02:45:33;37.2;;;19.1;;
68224;SDS011;57497;43.322;21.932;2022-10-18T02:50:33;17.2;;;11.7;;
68224;SDS011;57497;43.322;21.932;2022-10-18T02:55:33;14.6;;;8.2;;
68224;SDS011;57497;43.322;21.932;2022-10-18T03:00:34;15.6;;;10.4;;
68224;SDS011;57497;43.322;21.932;2022-10-18T03:05:33;15.5;;;9.4;;
68224;SDS011;57497;43.322;21.932;2022-10-18T03:10:33;14.1;;;10.6;;
68224;SDS011;57497;43.322;21.932;2022-10-18T03:15:33;16.9;;;8.9;;
68224;SDS011;57497;43.322;21.932;2022-10-18T03:20:33;18;;;9.7;;
68224;SDS011;57497;43.322;21.932;2022-10-18T03:25:33;11.6;;;7.2;;
68224;SDS011;57497;43.322;21.932;2022-10-18T03:30:33;10.7;;;7.8;;
68224;SDS011;57497;43.322;21.932;2022-10-18T03:35:33;9.7;;;7.3;;
68224;SDS011;57497;43.322;21.932;2022-10-18T03:40:33;14.5;;;8;;
68224;SDS011;57497;43.322;21.932;2022-10-18T03:45:33;20.4;;;11.8;;
68224;SDS011;57497;43.322;21.932;2022-10-18T03:50:33;20.7;;;15.1;;
68224;SDS011;57497;43.322;21.932;2022-10-18T03:55:33;28.8;;;19;;
68224;SDS011;57497;43.322;21.932;2022-10-18T04:00:34;17.4;;;9.3;;
68224;SDS011;57497;43.322;21.932;2022-10-18T04:05:33;30.6;;;8.7;;
68224;SDS011;57497;43.322;21.932;2022-10-18T04:10:33;14.4;;;8.5;;
68224;SDS011;57497;43.322;21.932;2022-10-18T04:15:33;14.3;;;7.6;;
68224;SDS011;57497;43.322;21.932;2022-10-18T04:20:32;10.8;;;7.5;;
68224;SDS011;57497;43.322;21.932;2022-10-18T04:25:33;20.2;;;9.5;;
68224;SDS011;57497;43.322;21.932;2022-10-18T04:30:33;36.8;;;9.7;;
68224;SDS011;57497;43.322;21.932;2022-10-18T04:35:33;15.9;;;8.9;;
68224;SDS011;57497;43.322;21.932;2022-10-18T04:40:33;13;;;8.5;;
68224;SDS011;57497;43.322;21.932;2022-10-18T04:45:33;22.1;;;9.8;;
68224;SDS011;57497;43.322;21.932;2022-10-18T04:50:33;19;;;11.1;;
68224;SDS011;57497;43.322;21.932;2022-10-18T04:55:33;21.3;;;11.9;;
68224;SDS011;57497;43.322;21.932;2022-10-18T05:00:34;10.1;;;8.6;;
68224;SDS011;57497;43.322;21.932;2022-10-18T05:05:33;23.5;;;8.5;;
68224;SDS011;57497;43.322;21.932;2022-10-18T05:10:33;16.9;;;8;;
68224;SDS011;57497;43.322;21.932;2022-10-18T05:15:33;16.8;;;9.7;;
68224;SDS011;57497;43.322;21.932;2022-10-18T05:20:33;23.2;;;11.5;;
68224;SDS011;57497;43.322;21.932;2022-10-18T05:25:32;40.1;;;13.7;;
68224;SDS011;57497;43.322;21.932;2022-10-18T05:30:35;51.1;;;21.2;;
68224;SDS011;57497;43.322;21.932;2022-10-18T05:35:32;51.4;;;26.1;;
68224;SDS011;57497;43.322;21.932;2022-10-18T05:40:33;21.7;;;11.8;;
68224;SDS011;57497;43.322;21.932;2022-10-18T05:45:33;22.7;;;8.3;;
68224;SDS011;57497;43.322;21.932;2022-10-18T05:50:32;25.6;;;7.6;;
68224;SDS011;57497;43.322;21.932;2022-10-18T05:55:33;25.5;;;8.1;;
68224;SDS011;57497;43.322;21.932;2022-10-18T06:00:34;13;;;9;;
68224;SDS011;57497;43.322;21.932;2022-10-18T06:05:32;20.6;;;7.5;;
68224;SDS011;57497;43.322;21.932;2022-10-18T06:10:32;17.7;;;10;;
68224;SDS011;57497;43.322;21.932;2022-10-18T06:15:33;30.7;;;21.5;;
68224;SDS011;57497;43.322;21.932;2022-10-18T06:20:33;19.9;;;12;;
68224;SDS011;57497;43.322;21.932;2022-10-18T06:25:33;26.1;;;14.4;;
68224;SDS011;57497;43.322;21.932;2022-10-18T06:30:32;24.6;;;14.7;;
68224;SDS011;57497;43.322;21.932;2022-10-18T06:35:32;25.3;;;13.7;;
68224;SDS011;57497;43.322;21.932;2022-10-18T06:40:33;27.8;;;15.7;;
68224;SDS011;57497;43.322;21.932;2022-10-18T06:45:33;25;;;10;;
68224;SDS011;57497;43.322;21.932;2022-10-18T06:50:33;13;;;8.6;;
68224;SDS011;57497;43.322;21.932;2022-10-18T06:55:33;16.2;;;9.9;;
68224;SDS011;57497;43.322;21.932;2022-10-18T07:00:34;20.9;;;10.4;;
68224;SDS011;57497;43.322;21.932;2022-10-18T07:05:33;16.3;;;12.6;;
68224;SDS011;57497;43.322;21.932;2022-10-18T07:10:32;14.8;;;10.1;;
68224;SDS011;57497;43.322;21.932;2022-10-18T07:15:32;20.6;;;10.7;;
68224;SDS011;57497;43.322;21.932;2022-10-18T07:20:33;13;;;8.7;;
68224;SDS011;57497;43.322;21.932;2022-10-18T07:25:33;15.6;;;11;;
68224;SDS011;57497;43.322;21.932;2022-10-18T07:30:33;15.6;;;11.7;;
68224;SDS011;57497;43.322;21.932;2022-10-18T07:35:33;14.7;;;12.3;;
68224;SDS011;57497;43.322;21.932;2022-10-18T07:40:32;21.9;;;13.9;;
68224;SDS011;57497;43.322;21.932;2022-10-18T07:45:33;16.7;;;10.9;;
68224;SDS011;57497;43.322;21.932;2022-10-18T07:50:33;17.2;;;11.6;;
68224;SDS011;57497;43.322;21.932;2022-10-18T07:55:33;22.9;;;14.2;;
68224;SDS011;57497;43.322;21.932;2022-10-18T08:00:34;12.8;;;9.9;;
68224;SDS011;57497;43.322;21.932;2022-10-18T08:05:33;34;;;11.8;;
68224;SDS011;57497;43.322;21.932;2022-10-18T08:10:33;19.7;;;11.8;;
68224;SDS011;57497;43.322;21.932;2022-10-18T08:15:33;30.4;;;11.5;;
68224;SDS011;57497;43.322;21.932;2022-10-18T08:20:34;18;;;12.7;;
68224;SDS011;57497;43.322;21.932;2022-10-18T08:25:33;18.3;;;11.3;;
68224;SDS011;57497;43.322;21.932;2022-10-18T08:30:33;17.5;;;13;;
68224;SDS011;57497;43.322;21.932;2022-10-18T08:35:33;19.4;;;13.5;;
68224;SDS011;57497;43.322;21.932;2022-10-18T08:40:33;21.6;;;14.7;;
68224;SDS011;57497;43.322;21.932;2022-10-18T08:45:34;16.7;;;11.6;;
68224;SDS011;57497;43.322;21.932;2022-10-18T08:50:34;14.9;;;11;;
68224;SDS011;57497;43.322;21.932;2022-10-18T08:55:34;21;;;12.6;;
68224;SDS011;57497;43.322;21.932;2022-10-18T09:00:34;14.8;;;11.8;;
68224;SDS011;57497;43.322;21.932;2022-10-18T09:05:35;20.9;;;10.3;;
68224;SDS011;57497;43.322;21.932;2022-10-18T09:10:36;19.5;;;13.3;;
68224;SDS011;57497;43.322;21.932;2022-10-18T09:15:34;15.7;;;12.6;;
68224;SDS011;57497;43.322;21.932;2022-10-18T09:20:34;17.8;;;11.2;;
68224;SDS011;57497;43.322;21.932;2022-10-18T09:25:34;19;;;13.6;;
68224;SDS011;57497;43.322;21.932;2022-10-18T09:30:37;14.6;;;9.9;;
68224;SDS011;57497;43.322;21.932;2022-10-18T09:35:37;20.5;;;9.5;;
68224;SDS011;57497;43.322;21.932;2022-10-18T09:40:34;22.7;;;10.7;;
68224;SDS011;57497;43.322;21.932;2022-10-18T09:45:34;13.9;;;10.2;;
68224;SDS011;57497;43.322;21.932;2022-10-18T09:50:34;13.9;;;9;;
68224;SDS011;57497;43.322;21.932;2022-10-18T09:55:34;12.7;;;7.9;;
68224;SDS011;57497;43.322;21.932;2022-10-18T10:00:34;9.8;;;8.1;;
68224;SDS011;57497;43.322;21.932;2022-10-18T10:05:33;14.8;;;8.5;;
68224;SDS011;57497;43.322;21.932;2022-10-18T10:10:33;19.8;;;10.1;;
68224;SDS011;57497;43.322;21.932;2022-10-18T10:15:33;13;;;7.9;;
68224;SDS011;57497;43.322;21.932;2022-10-18T10:20:34;16.3;;;7.9;;
68224;SDS011;57497;43.322;21.932;2022-10-18T10:25:34;11.9;;;8.6;;
68224;SDS011;57497;43.322;21.932;2022-10-18T10:30:33;12.2;;;7.9;;
68224;SDS011;57497;43.322;21.932;2022-10-18T10:35:34;16.5;;;8.5;;
68224;SDS011;57497;43.322;21.932;2022-10-18T10:40:33;13.4;;;9.3;;
68224;SDS011;57497;43.322;21.932;2022-10-18T10:45:34;18.2;;;7.9;;
68224;SDS011;57497;43.322;21.932;2022-10-18T10:50:45;14.7;;;6.8;;
68224;SDS011;57497;43.322;21.932;2022-10-18T10:55:33;14.3;;;7.1;;
68224;SDS011;57497;43.322;21.932;2022-10-18T11:00:35;11.1;;;6.1;;
68224;SDS011;57497;43.322;21.932;2022-10-18T11:05:40;9.8;;;6.6;;
68224;SDS011;57497;43.322;21.932;2022-10-18T11:10:33;8;;;5.8;;
68224;SDS011;57497;43.322;21.932;2022-10-18T11:15:34;13.1;;;7;;
68224;SDS011;57497;43.322;21.932;2022-10-18T11:20:34;10.5;;;6.6;;
68224;SDS011;57497;43.322;21.932;2022-10-18T11:25:39;6.8;;;3.7;;
68224;SDS011;57497;43.322;21.932;2022-10-18T11:30:36;7.2;;;5.6;;
68224;SDS011;57497;43.322;21.932;2022-10-18T11:35:35;7.4;;;5.1;;
68224;SDS011;57497;43.322;21.932;2022-10-18T11:40:39;9.1;;;6.4;;
68224;SDS011;57497;43.322;21.932;2022-10-18T11:45:36;10.3;;;6.8;;
68224;SDS011;57497;43.322;21.932;2022-10-18T11:50:33;8;;;4.8;;
68224;SDS011;57497;43.322;21.932;2022-10-18T11:55:36;31;;;8;;
68224;SDS011;57497;43.322;21.932;2022-10-18T12:00:36;11.3;;;6.6;;
68224;SDS011;57497;43.322;21.932;2022-10-18T12:05:33;12.7;;;5.7;;
68224;SDS011;57497;43.322;21.932;2022-10-18T12:10:33;7;;;5.9;;
68224;SDS011;57497;43.322;21.932;2022-10-18T12:15:33;14.9;;;5.9;;
68224;SDS011;57497;43.322;21.932;2022-10-18T12:20:34;15.7;;;9.7;;
68224;SDS011;57497;43.322;21.932;2022-10-18T12:25:34;16.5;;;5.4;;
68224;SDS011;57497;43.322;21.932;2022-10-18T12:30:35;8.6;;;5.9;;
68224;SDS011;57497;43.322;21.932;2022-10-18T12:35:35;8.2;;;5;;
68224;SDS011;57497;43.322;21.932;2022-10-18T12:40:35;10.9;;;7.8;;
68224;SDS011;57497;43.322;21.932;2022-10-18T12:45:34;8.6;;;6.1;;
68224;SDS011;57497;43.322;21.932;2022-10-18T12:50:34;13.8;;;6;;
68224;SDS011;57497;43.322;21.932;2022-10-18T12:55:34;10.1;;;7;;
68224;SDS011;57497;43.322;21.932;2022-10-18T13:01:06;8.6;;;6.5;;
68224;SDS011;57497;43.322;21.932;2022-10-18T13:06:05;12;;;6.9;;
68224;SDS011;57497;43.322;21.932;2022-10-18T13:10:34;9.5;;;5.1;;
68224;SDS011;57497;43.322;21.932;2022-10-18T13:15:35;9.6;;;5.9;;
68224;SDS011;57497;43.322;21.932;2022-10-18T13:20:36;15.2;;;6.7;;
68224;SDS011;57497;43.322;21.932;2022-10-18T13:25:34;10.3;;;7.6;;
68224;SDS011;57497;43.322;21.932;2022-10-18T13:30:38;18.5;;;6.9;;
68224;SDS011;57497;43.322;21.932;2022-10-18T13:35:41;23.5;;;8;;
68224;SDS011;57497;43.322;21.932;2022-10-18T13:40:33;11.2;;;6.7;;
68224;SDS011;57497;43.322;21.932;2022-10-18T13:46:05;12.1;;;10.8;;
68224;SDS011;57497;43.322;21.932;2022-10-18T13:50:34;20.4;;;15.8;;
68224;SDS011;57497;43.322;21.932;2022-10-18T13:55:37;24.5;;;22.5;;
68224;SDS011;57497;43.322;21.932;2022-10-18T14:00:35;1999.9;;;999.9;;
68224;SDS011;57497;43.322;21.932;2022-10-18T14:05:39;1999.9;;;999.9;;
68224;SDS011;57497;43.322;21.932;2022-10-18T14:10:35;1999.9;;;999.9;;
68224;SDS011;57497;43.322;21.932;2022-10-18T14:15:33;1999.9;;;999.9;;
68224;SDS011;57497;43.322;21.932;2022-10-18T14:20:33;1999.9;;;999.9;;
68224;SDS011;57497;43.322;21.932;2022-10-18T14:25:33;1999.9;;;999.9;;
68224;SDS011;57497;43.322;21.932;2022-10-18T14:30:33;56;;;51.9;;
68224;SDS011;57497;43.322;21.932;2022-10-18T14:35:33;1999.9;;;999.9;;
68224;SDS011;57497;43.322;21.932;2022-10-18T14:40:34;1999.9;;;999.9;;
68224;SDS011;57497;43.322;21.932;2022-10-18T14:45:33;9.7;;;4.4;;
68224;SDS011;57497;43.322;21.932;2022-10-18T14:50:33;7.9;;;6.2;;
68224;SDS011;57497;43.322;21.932;2022-10-18T14:55:33;8.6;;;4.4;;
68224;SDS011;57497;43.322;21.932;2022-10-18T15:00:34;8.1;;;5.4;;
68224;SDS011;57497;43.322;21.932;2022-10-18T15:05:33;5.7;;;4.3;;
68224;SDS011;57497;43.322;21.932;2022-10-18T15:10:33;7.1;;;4.5;;
68224;SDS011;57497;43.322;21.932;2022-10-18T15:15:33;8.2;;;4.9;;
68224;SDS011;57497;43.322;21.932;2022-10-18T15:20:33;8.5;;;5.5;;
68224;SDS011;57497;43.322;21.932;2022-10-18T15:25:33;7.6;;;4;;
68224;SDS011;57497;43.322;21.932;2022-10-18T15:30:35;11.7;;;5.1;;
68224;SDS011;57497;43.322;21.932;2022-10-18T15:35:33;22.7;;;5.6;;
68224;SDS011;57497;43.322;21.932;2022-10-18T15:40:34;15;;;5.9;;
68224;SDS011;57497;43.322;21.932;2022-10-18T15:45:35;10.8;;;5.1;;
68224;SDS011;57497;43.322;21.932;2022-10-18T15:50:35;8.4;;;5.2;;
68224;SDS011;57497;43.322;21.932;2022-10-18T15:55:48;16.9;;;4.4;;
68224;SDS011;57497;43.322;21.932;2022-10-18T16:00:33;10.5;;;6.7;;
68224;SDS011;57497;43.322;21.932;2022-10-18T16:05:33;12.2;;;7.7;;
68224;SDS011;57497;43.322;21.932;2022-10-18T16:10:33;14.1;;;9.2;;
68224;SDS011;57497;43.322;21.932;2022-10-18T16:15:33;20.2;;;9.9;;
68224;SDS011;57497;43.322;21.932;2022-10-18T16:20:33;14.7;;;9;;
68224;SDS011;57497;43.322;21.932;2022-10-18T16:25:33;25.3;;;8.8;;
68224;SDS011;57497;43.322;21.932;2022-10-18T16:30:33;14.1;;;7.9;;
68224;SDS011;57497;43.322;21.932;2022-10-18T16:35:33;20.7;;;9;;
68224;SDS011;57497;43.322;21.932;2022-10-18T16:40:34;22.3;;;9.7;;
68224;SDS011;57497;43.322;21.932;2022-10-18T16:45:33;10.1;;;6.6;;
68224;SDS011;57497;43.322;21.932;2022-10-18T16:50:33;16.3;;;8.9;;
68224;SDS011;57497;43.322;21.932;2022-10-18T16:55:33;23.2;;;12.9;;
68224;SDS011;57497;43.322;21.932;2022-10-18T17:00:34;31.7;;;13.4;;
68224;SDS011;57497;43.322;21.932;2022-10-18T17:05:33;20.2;;;12.7;;
68224;SDS011;57497;43.322;21.932;2022-10-18T17:10:33;22;;;16.3;;
68224;SDS011;57497;43.322;21.932;2022-10-18T17:15:32;32.7;;;19.7;;
68224;SDS011;57497;43.322;21.932;2022-10-18T17:20:33;39.7;;;22.9;;
68224;SDS011;57497;43.322;21.932;2022-10-18T17:25:33;30.2;;;20.8;;
68224;SDS011;57497;43.322;21.932;2022-10-18T17:30:33;40.4;;;23.1;;
68224;SDS011;57497;43.322;21.932;2022-10-18T17:35:33;27.1;;;18.7;;
68224;SDS011;57497;43.322;21.932;2022-10-18T17:40:33;34.4;;;19.4;;
68224;SDS011;57497;43.322;21.932;2022-10-18T17:45:33;21.4;;;15.1;;
68224;SDS011;57497;43.322;21.932;2022-10-18T17:50:33;27.6;;;17.5;;
68224;SDS011;57497;43.322;21.932;2022-10-18T17:55:33;29.3;;;18.9;;
68224;SDS011;57497;43.322;21.932;2022-10-18T18:00:34;34.8;;;17.8;;
68224;SDS011;57497;43.322;21.932;2022-10-18T18:05:33;25.6;;;16.5;;
68224;SDS011;57497;43.322;21.932;2022-10-18T18:10:32;41.1;;;21.9;;
68224;SDS011;57497;43.322;21.932;2022-10-18T18:15:33;62.7;;;20.7;;
68224;SDS011;57497;43.322;21.932;2022-10-18T18:20:33;35.7;;;19.5;;
68224;SDS011;57497;43.322;21.932;2022-10-18T18:25:33;53.6;;;22.1;;
68224;SDS011;57497;43.322;21.932;2022-10-18T18:30:33;36.7;;;20.5;;
68224;SDS011;57497;43.322;21.932;2022-10-18T18:35:33;35;;;21;;
68224;SDS011;57497;43.322;21.932;2022-10-18T18:40:33;32.7;;;18.6;;
68224;SDS011;57497;43.322;21.932;2022-10-18T18:45:33;36.4;;;17;;
68224;SDS011;57497;43.322;21.932;2022-10-18T18:50:33;48.1;;;29.4;;
68224;SDS011;57497;43.322;21.932;2022-10-18T18:55:33;57;;;19.5;;
68224;SDS011;57497;43.322;21.932;2022-10-18T19:00:35;35.1;;;22.1;;
68224;SDS011;57497;43.322;21.932;2022-10-18T19:05:32;41.8;;;21.2;;
68224;SDS011;57497;43.322;21.932;2022-10-18T19:10:32;53.4;;;25.4;;
68224;SDS011;57497;43.322;21.932;2022-10-18T19:15:33;35;;;23.3;;
68224;SDS011;57497;43.322;21.932;2022-10-18T19:20:33;37.5;;;19;;
68224;SDS011;57497;43.322;21.932;2022-10-18T19:25:33;34.9;;;22.4;;
68224;SDS011;57497;43.322;21.932;2022-10-18T19:30:33;32.6;;;20.1;;
68224;SDS011;57497;43.322;21.932;2022-10-18T19:35:33;40.8;;;23.1;;
68224;SDS011;57497;43.322;21.932;2022-10-18T19:40:33;27.6;;;17.3;;
68224;SDS011;57497;43.322;21.932;2022-10-18T19:45:33;24.9;;;15.4;;
68224;SDS011;57497;43.322;21.932;2022-10-18T19:50:34;38;;;17.8;;
68224;SDS011;57497;43.322;21.932;2022-10-18T19:55:32;67.9;;;38.8;;
68224;SDS011;57497;43.322;21.932;2022-10-18T20:00:34;41.4;;;19.5;;
68224;SDS011;57497;43.322;21.932;2022-10-18T20:05:33;31;;;18.6;;
68224;SDS011;57497;43.322;21.932;2022-10-18T20:10:33;34.1;;;18.4;;
68224;SDS011;57497;43.322;21.932;2022-10-18T20:15:33;29.2;;;18.9;;
68224;SDS011;57497;43.322;21.932;2022-10-18T20:20:33;27.9;;;18.5;;
68224;SDS011;57497;43.322;21.932;2022-10-18T20:25:33;44.2;;;28.9;;
68224;SDS011;57497;43.322;21.932;2022-10-18T20:30:33;31.6;;;20.4;;
68224;SDS011;57497;43.322;21.932;2022-10-18T20:35:33;27.1;;;17.7;;
68224;SDS011;57497;43.322;21.932;2022-10-18T20:40:33;21.8;;;15.6;;
68224;SDS011;57497;43.322;21.932;2022-10-18T20:45:32;25.8;;;16.1;;
68224;SDS011;57497;43.322;21.932;2022-10-18T20:50:33;28.4;;;17.5;;
68224;SDS011;57497;43.322;21.932;2022-10-18T20:55:33;25.8;;;16.4;;
68224;SDS011;57497;43.322;21.932;2022-10-18T21:00:34;22.4;;;14.4;;
68224;SDS011;57497;43.322;21.932;2022-10-18T21:05:33;22.5;;;15.2;;
68224;SDS011;57497;43.322;21.932;2022-10-18T21:10:33;25.9;;;15.2;;
68224;SDS011;57497;43.322;21.932;2022-10-18T21:15:33;20.5;;;13;;
68224;SDS011;57497;43.322;21.932;2022-10-18T21:20:33;27.6;;;13.6;;
68224;SDS011;57497;43.322;21.932;2022-10-18T21:25:33;53.5;;;26.9;;
68224;SDS011;57497;43.322;21.932;2022-10-18T21:30:33;31.2;;;19.3;;
68224;SDS011;57497;43.322;21.932;2022-10-18T21:35:33;31.2;;;16.8;;
68224;SDS011;57497;43.322;21.932;2022-10-18T21:40:33;35;;;18;;
68224;SDS011;57497;43.322;21.932;2022-10-18T21:45:33;28.3;;;15;;
68224;SDS011;57497;43.322;21.932;2022-10-18T21:50:33;41.5;;;20;;
68224;SDS011;57497;43.322;21.932;2022-10-18T21:55:34;27.5;;;16.4;;
68224;SDS011;57497;43.322;21.932;2022-10-18T22:00:34;48.6;;;16.1;;
68224;SDS011;57497;43.322;21.932;2022-10-18T22:05:33;29.2;;;13.6;;
68224;SDS011;57497;43.322;21.932;2022-10-18T22:10:33;32.7;;;14.6;;
68224;SDS011;57497;43.322;21.932;2022-10-18T22:15:32;23.9;;;15.1;;
68224;SDS011;57497;43.322;21.932;2022-10-18T22:20:32;34.4;;;18.2;;
68224;SDS011;57497;43.322;21.932;2022-10-18T22:25:33;44;;;20.1;;
68224;SDS011;57497;43.322;21.932;2022-10-18T22:30:34;38.5;;;16.9;;
68224;SDS011;57497;43.322;21.932;2022-10-18T22:35:33;28.8;;;14.5;;
68224;SDS011;57497;43.322;21.932;2022-10-18T22:40:33;31.2;;;17.6;;
68224;SDS011;57497;43.322;21.932;2022-10-18T22:45:33;22.6;;;14.4;;
68224;SDS011;57497;43.322;21.932;2022-10-18T22:50:33;26.7;;;15.2;;
68224;SDS011;57497;43.322;21.932;2022-10-18T22:55:33;22.3;;;15.5;;
68224;SDS011;57497;43.322;21.932;2022-10-18T23:00:36;24.3;;;15.3;;
68224;SDS011;57497;43.322;21.932;2022-10-18T23:05:35;26.7;;;14.9;;
68224;SDS011;57497;43.322;21.932;2022-10-18T23:10:35;30.8;;;16.2;;
68224;SDS011;57497;43.322;21.932;2022-10-18T23:15:33;26.3;;;14.2;;
68224;SDS011;57497;43.322;21.932;2022-10-18T23:20:33;26.5;;;15.5;;
68224;SDS011;57497;43.322;21.932;2022-10-18T23:25:33;23.4;;;14.4;;
68224;SDS011;57497;43.322;21.932;2022-10-18T23:30:36;29.6;;;16.6;;
68224;SDS011;57497;43.322;21.932;2022-10-18T23:35:33;28.1;;;14.7;;
68224;SDS011;57497;43.322;21.932;2022-10-18T23:40:33;21.2;;;12.3;;
68224;SDS011;57497;43.322;21.932;2022-10-18T23:45:32;20.9;;;12.8;;
68224;SDS011;57497;43.322;21.932;2022-10-18T23:50:33;18.4;;;12.3;;
68224;SDS011;57497;43.322;21.932;2022-10-18T23:55:33;13.7;;;9.9;;
